• Join FlightAware (Why Join?)
  • Login
  • US Flag 
05:38PM EDT


 

Airport Tracker/Info


-or-


 

Live Flight TrackerFlight Track Log ✈ AWE1842 ✈ 16-Apr-2013 ✈ KMCO - KCLT

Flight Track Log - Related Links

Times and Time Zones

All times are in EDT time to prevent confusion due to time zone crossing. See the AWE1842 flight status page for this flight to view local times or setup timezone preferences in your user account.

Time Position Orientation Groundspeed Altitude Reporting Facility
EDT Latitude Longitude Course Direction KTS MPH feet Rate Location/Type
05:32AM 28.4560 -81.3250 360° North 163 188 1,100  Level FlightAware
05:32AM 28.4640 -81.3160 45° Northeast 175 201 1,400 1,020 Climbing FlightAware
05:33AM 28.4800 -81.2920 53° Northeast 205 236 1,900 1,680 Climbing FlightAware
05:33AM 28.4990 -81.2630 53° Northeast 224 258 3,100 2,520 Climbing FlightAware
05:34AM 28.5100 -81.2490 48° Northeast 224 258 3,800 2,400 Climbing FlightAware
05:34AM 28.5190 -81.2440 26° Northeast 237 273 4,100 1,500 Climbing FlightAware
05:34AM 28.5300 -81.2420 North 243 280 4,300 1,800 Climbing FlightAware
05:35AM 28.5670 -81.2520 347° North 267 307 5,300 2,220 Climbing FlightAware
05:35AM 28.5840 -81.2570 346° North 268 308 6,000 2,880 Climbing FlightAware
05:35AM 28.6220 -81.2680 346° North 270 311 7,500 2,580 Climbing FlightAware
05:36AM 28.6600 -81.2790 346° North 286 329 8,600 2,280 Climbing FlightAware
05:36AM 28.6910 -81.2880 346° North 284 327 9,600 1,860 Climbing FlightAware
05:37AM 28.7540 -81.3060 346° North 314 361 10,800 1,260 Climbing FlightAware
05:38AM 28.8140 -81.3260 344° North 351 404 11,400 1,260 Climbing FlightAware
05:38AM 28.8900 -81.3510 344° North 373 429 12,600 1,920 Climbing FlightAware
05:39AM 28.9580 -81.3740 344° North 372 428 14,200 1,980 Climbing FlightAware
05:40AM 29.0250 -81.3920 347° North 390 449 15,300 840 Climbing FlightAware
05:40AM 29.0840 -81.4040 350° North 390 449 15,300 1,860 Level FlightAware
05:41AM 29.1760 -81.4160 354° North 392 451 18,000 2,460 Climbing FlightAware
05:42AM 29.2540 -81.4280 352° North 405 466 19,000 1,500 Climbing FlightAware
05:42AM 29.3270 -81.4390 353° North 404 465 20,000 840 Climbing FlightAware
05:43AM 29.4020 -81.4510 352° North 405 466 20,200 120 Climbing FlightAware
05:44AM 29.4650 -81.4620 351° North 405 466 20,200  Level FlightAware
05:45AM 29.5280 -81.4720 352° North 405 466 20,200 2,460 Level FlightAware
05:46AM 29.6940 -81.4970 353° North 438 504 24,300 3,360 Climbing FlightAware
05:46AM 29.7740 -81.5100 352° North 421 484 25,800 1,920 Climbing FlightAware
05:47AM 29.8380 -81.5200 352° North 419 482 26,700 900 Climbing FlightAware
05:48AM 29.9310 -81.5350 352° North 419 482 27,000 180 Climbing FlightAware
05:48AM 30.0130 -81.5480 352° North 422 486 27,000  Level FlightAware
05:49AM 30.0880 -81.5600 352° North 422 486 27,000  Level FlightAware
05:50AM 30.1700 -81.5740 352° North 422 486 27,000  Level FlightAware
05:50AM 30.2360 -81.5840 353° North 422 486 27,000  Level FlightAware
05:51AM 30.3020 -81.5950 352° North 422 486 27,000  Level FlightAware
05:52AM 30.3680 -81.6060 352° North 422 486 27,000  Level FlightAware
05:53AM 30.5297 -81.6314 352° North 429 494 27,000  Level Jacksonville Center
05:54AM 30.6447 -81.6514 351° North 424 488 27,000  Level Jacksonville Center
05:55AM 30.7533 -81.6694 352° North 432 497 27,000  Level Jacksonville Center
05:56AM 30.8706 -81.6897 352° North 426 490 27,000  Level Jacksonville Center
05:57AM 30.9875 -81.7100 352° North 426 490 27,000  Level Jacksonville Center
05:58AM 31.1047 -81.7278 353° North 426 490 27,000  Level Jacksonville Center
05:59AM 31.2239 -81.7483 352° North 426 490 27,000  Level Jacksonville Center
06:00AM 31.3536 -81.7661 353° North 426 490 27,000  Level Jacksonville Center
06:01AM 31.4706 -81.7842 352° North 431 496 27,000  Level Jacksonville Center
06:02AM 31.5753 -81.8025 352° North 423 487 27,000  Level Jacksonville Center
06:03AM 31.7047 -81.8256 351° North 423 487 27,000  Level Jacksonville Center
06:04AM 31.8219 -81.8461 352° North 428 493 27,000  Level Jacksonville Center
06:09AM 32.4530 -81.9480 352° North 427 491 27,000  Level FlightAware
06:10AM 32.5500 -81.9640 352° North 428 493 27,000  Level FlightAware
06:11AM 32.6310 -81.9780 352° North 429 494 27,000  Level FlightAware
06:11AM 32.7150 -81.9920 352° North 429 494 27,000  Level FlightAware
06:12AM 32.8040 -82.0070 352° North 429 494 27,000  Level FlightAware
06:13AM 32.8800 -82.0200 352° North 429 494 27,000  Level FlightAware
06:13AM 32.9600 -82.0340 352° North 430 495 27,000  Level FlightAware
06:14AM 33.0430 -82.0480 352° North 430 495 27,000  Level FlightAware
06:15AM 33.2130 -82.0770 352° North 429 494 27,000  Level FlightAware
06:16AM 33.2950 -82.0910 352° North 428 493 27,000  Level FlightAware
06:17AM 33.3740 -82.1040 352° North 427 491 27,000  Level FlightAware
06:18AM 33.4620 -82.1200 351° North 427 491 27,000  Level FlightAware
06:18AM 33.5400 -82.1330 352° North 426 490 27,000  Level FlightAware
06:19AM 33.6280 -82.1480 352° North 426 490 27,000  Level FlightAware
06:20AM 33.7060 -82.1600 353° North 429 494 27,000 -240 Level FlightAware
06:20AM 33.7850 -82.1610 359° North 427 491 26,700 -780 Descending FlightAware
06:21AM 33.8650 -82.1600 North 425 489 26,000 -1,080 Descending FlightAware
06:22AM 33.9420 -82.1590 North 425 489 25,300 -1,380 Descending FlightAware
06:22AM 34.0220 -82.1570 North 424 488 24,200 -1,020 Descending FlightAware
06:23AM 34.0970 -82.1560 North 384 442 24,000 -660 Descending FlightAware
06:24AM 34.1990 -82.1550 360° North 356 410 23,100 -1,140 Descending FlightAware
06:24AM 34.2310 -82.1530 North 359 413 22,500 -1,920 Descending FlightAware
06:25AM 34.2540 -82.1430 20° North 370 426 22,000 -2,040 Descending FlightAware
06:25AM 34.2750 -82.1240 37° Northeast 379 436 21,500 -1,680 Descending FlightAware
06:25AM 34.3210 -82.0660 46° Northeast 372 428 20,500 -1,740 Descending FlightAware
06:26AM 34.3870 -81.9830 46° Northeast 362 417 18,800 -1,740 Descending FlightAware
06:27AM 34.4330 -81.9240 47° Northeast 353 406 17,800 -1,500 Descending FlightAware
06:28AM 34.4980 -81.8420 46° Northeast 343 395 16,300 -1,020 Descending FlightAware
06:29AM 34.5300 -81.8010 47° Northeast 341 392 16,200 -1,380 Descending FlightAware
06:29AM 34.5780 -81.7410 46° Northeast 326 375 14,600 -1,140 Descending FlightAware
06:30AM 34.6190 -81.6890 46° Northeast 326 375 14,600  Level FlightAware
06:31AM 34.6540 -81.6440 47° Northeast 326 375 14,600 -2,280 Level FlightAware
06:31AM 34.6847 -81.6044 47° Northeast 313 360 12,400 -3,900 Descending FAA TRACON SMA TRACON (SMA)
06:31AM 34.7031 -81.5808 47° Northeast 312 359 12,100 -600 Descending FAA TRACON SMA TRACON (SMA)
06:32AM 34.7267 -81.5522 45° Northeast 313 360 12,000 -180 Descending FAA TRACON SMA TRACON (SMA)
06:32AM 34.7450 -81.5281 47° Northeast 314 361 12,000  Level FAA TRACON SMA TRACON (SMA)
06:32AM 34.7633 -81.5044 47° Northeast 313 360 12,000  Level FAA TRACON SMA TRACON (SMA)
06:33AM 34.7861 -81.4750 47° Northeast 312 359 12,000 -300 Level FAA TRACON SMA TRACON (SMA)
06:33AM 34.8044 -81.4519 46° Northeast 310 357 11,800 -1,080 Descending FAA TRACON SMA TRACON (SMA)
06:33AM 34.8222 -81.4286 47° Northeast 308 354 11,300 -1,200 Descending FAA TRACON SMA TRACON (SMA)
06:34AM 34.8400 -81.4061 46° Northeast 305 351 11,000 -1,200 Descending FAA TRACON SMA TRACON (SMA)
06:34AM 34.8617 -81.3778 47° Northeast 298 343 10,500 -1,680 Descending FAA TRACON SMA TRACON (SMA)
06:34AM 34.8789 -81.3558 46° Northeast 294 338 9,900 -1,500 Descending FAA TRACON SMA TRACON (SMA)
06:35AM 34.8958 -81.3342 46° Northeast 292 336 9,500 -1,200 Descending FAA TRACON SMA TRACON (SMA)
06:35AM 34.9172 -81.3067 47° Northeast 290 334 9,100 -780 Descending FAA TRACON SMA TRACON (SMA)
06:35AM 34.9339 -81.2844 48° Northeast 289 333 9,000 -180 Descending FAA TRACON SMA TRACON (SMA)
06:36AM 34.9550 -81.2572 47° Northeast 289 333 9,000  Level FAA TRACON SMA TRACON (SMA)
06:36AM 34.9719 -81.2356 46° Northeast 288 331 9,000  Level FAA TRACON SMA TRACON (SMA)
06:36AM 34.9883 -81.2144 47° Northeast 283 326 9,000  Level FAA TRACON SMA TRACON (SMA)
06:37AM 35.0069 -81.1903 47° Northeast 259 298 9,000  Level FAA TRACON SMA TRACON (SMA)
06:37AM 35.0214 -81.1711 47° Northeast 253 291 9,000  Level FAA TRACON SMA TRACON (SMA)
06:37AM 35.0361 -81.1522 46° Northeast 250 288 9,000  Level FAA TRACON SMA TRACON (SMA)
06:38AM 35.0547 -81.1281 47° Northeast 252 290 9,000  Level FAA TRACON SMA TRACON (SMA)
06:38AM 35.0694 -81.1086 47° Northeast 253 291 9,000  Level FAA TRACON SMA TRACON (SMA)
06:38AM 35.0844 -81.0892 47° Northeast 253 291 9,000  Level FAA TRACON SMA TRACON (SMA)
06:39AM 35.0994 -81.0703 46° Northeast 253 291 9,000  Level FAA TRACON SMA TRACON (SMA)
06:39AM 35.1247 -81.0606 17° North 253 291 9,000  Level FAA TRACON SMA TRACON (SMA)
06:39AM 35.1514 -81.0633 355° North 250 288 9,000  Level FAA TRACON SMA TRACON (SMA)
06:40AM 35.1725 -81.0653 356° North 249 287 9,000 -180 Level FAA TRACON SMA TRACON (SMA)
06:40AM 35.1942 -81.0672 356° North 248 285 8,900 -840 Descending FAA TRACON SMA TRACON (SMA)
06:40AM 35.2153 -81.0692 356° North 246 283 8,500 -1,440 Descending FAA TRACON SMA TRACON (SMA)
06:41AM 35.2361 -81.0647 10° North 247 284 8,000 -1,560 Descending FAA TRACON SMA TRACON (SMA)
06:41AM 35.2606 -81.0517 24° Northeast 249 287 7,500 -1,380 Descending FAA TRACON SMA TRACON (SMA)
06:41AM 35.2783 -81.0381 32° Northeast 237 273 7,100 -780 Descending FAA TRACON SMA TRACON (SMA)
06:42AM 35.2919 -81.0181 50° Northeast 250 288 7,000 -600 Descending FAA TRACON SMA TRACON (SMA)
06:42AM 35.3094 -80.9933 49° Northeast 249 287 6,700 -1,200 Descending FAA TRACON SMA TRACON (SMA)
06:42AM 35.3236 -80.9739 48° Northeast 246 283 6,200 -1,500 Descending FAA TRACON SMA TRACON (SMA)
06:43AM 35.3375 -80.9542 49° Northeast 246 283 5,700 -1,680 Descending FAA TRACON SMA TRACON (SMA)
06:43AM 35.3514 -80.9267 58° Northeast 252 290 5,100 -1,740 Descending FAA TRACON SMA TRACON (SMA)
06:43AM 35.3625 -80.9050 58° Northeast 243 280 4,600 -1,380 Descending FAA TRACON SMA TRACON (SMA)
06:44AM 35.3725 -80.8847 59° Northeast 243 280 4,200 -900 Descending FAA TRACON SMA TRACON (SMA)
06:44AM 35.3850 -80.8625 55° Northeast 240 276 4,000 -300 Descending FAA TRACON SMA TRACON (SMA)
06:44AM 35.3983 -80.8383 56° Northeast 218 251 4,000  Level FAA TRACON SMA TRACON (SMA)
06:45AM 35.4039 -80.8200 70° East 208 239 4,000  Level FAA TRACON SMA TRACON (SMA)
06:45AM 35.3958 -80.7986 115° Southeast 203 234 4,000  Level FAA TRACON SMA TRACON (SMA)
06:45AM 35.3819 -80.7792 131° Southeast 187 215 4,000  Level FAA TRACON SMA TRACON (SMA)
06:46AM 35.3717 -80.7642 130° Southeast 186 214 4,000  Level FAA TRACON SMA TRACON (SMA)
06:46AM 35.3581 -80.7583 161° South 181 208 4,000  Level FAA TRACON SMA TRACON (SMA)
06:46AM 35.3419 -80.7686 207° Southwest 174 200 4,000  Level FAA TRACON SMA TRACON (SMA)
06:47AM 35.3314 -80.7811 224° Southwest 177 204 4,000 -480 Level FAA TRACON SMA TRACON (SMA)
06:47AM 35.3217 -80.7950 229° Southwest 173 199 3,700 -1,080 Descending FAA TRACON SMA TRACON (SMA)
06:47AM 35.3100 -80.8108 228° Southwest 163 188 3,300 -1,080 Descending FAA TRACON SMA TRACON (SMA)
06:48AM 35.3008 -80.8233 228° Southwest 161 185 3,000 -900 Descending FAA TRACON SMA TRACON (SMA)